Time;durP1;ratioP1;P1;durP2;ratioP2;P2;SDS_P1;SDS_P2;PMS_P1;PMS_P2;Temp;Humidity;BMP_temperature;BMP_pressure;BME280_temperature;BME280_humidity;BME280_pressure;Samples;Min_cycle;Max_cycle;Signal;HPM_P1;HPM_P2
2021/07/12 00:00:15;;;;;;;12.88;6.92;;;;;;;16.59;90.75;97980.83;1736653;81;21489;-74
2021/07/12 00:02:42;;;;;;;12.65;5.92;;;;;;;16.58;90.56;97985.25;1736300;82;20951;-73
2021/07/12 00:05:10;;;;;;;7.85;6.22;;;;;;;16.61;90.50;97979.13;1736776;82;20910;-73
2021/07/12 00:07:36;;;;;;;10.53;6.50;;;;;;;16.59;90.74;97984.93;1736265;82;21131;-73
2021/07/12 00:10:05;;;;;;;7.60;6.17;;;;;;;16.55;90.33;97978.47;1736291;82;20929;-73
2021/07/12 00:12:31;;;;;;;14.47;6.78;;;;;;;16.51;90.38;97977.52;1736403;82;20982;-73
2021/07/12 00:14:57;;;;;;;7.62;6.25;;;;;;;16.47;90.73;97972.98;1736356;82;21437;-73
2021/07/12 00:17:23;;;;;;;10.25;7.28;;;;;;;16.43;90.71;97975.56;1736351;82;20851;-73
2021/07/12 00:19:49;;;;;;;8.23;6.65;;;;;;;16.38;90.53;97977.63;1748666;81;21327;-73
2021/07/12 00:22:15;;;;;;;8.85;6.87;;;;;;;16.33;90.01;97978.60;1750290;82;20988;-73
2021/07/12 00:24:41;;;;;;;7.67;5.83;;;;;;;16.25;91.05;97977.45;1750412;82;20985;-73
2021/07/12 00:27:07;;;;;;;7.90;6.80;;;;;;;16.23;91.75;97970.67;1750493;82;20819;-73
2021/07/12 00:29:32;;;;;;;10.10;6.42;;;;;;;16.22;92.02;97971.23;1750456;82;20854;-73
2021/07/12 00:31:58;;;;;;;11.65;6.55;;;;;;;16.18;92.37;97973.57;1750684;82;21965;-73
2021/07/12 00:34:24;;;;;;;7.72;5.80;;;;;;;16.19;90.87;97967.78;1750391;81;20838;-72
2021/07/12 00:36:50;;;;;;;9.95;4.62;;;;;;;16.13;92.10;97979.17;1750177;82;20945;-73
2021/07/12 00:39:16;;;;;;;7.80;5.50;;;;;;;16.09;92.74;97977.64;1750446;82;20929;-73
2021/07/12 00:41:42;;;;;;;9.15;5.20;;;;;;;16.11;92.72;97978.12;1750758;82;20953;-73
2021/07/12 00:44:08;;;;;;;12.90;5.50;;;;;;;16.12;91.35;97984.39;1750485;82;21186;-73
2021/07/12 00:46:34;;;;;;;6.20;5.47;;;;;;;16.03;92.56;97992.00;1750324;82;20950;-73
2021/07/12 00:49:00;;;;;;;5.90;5.15;;;;;;;16.05;91.10;97985.65;1750454;81;20862;-73
2021/07/12 00:51:26;;;;;;;8.20;5.78;;;;;;;15.99;91.00;97984.77;1750536;81;20940;-73
2021/07/12 00:53:52;;;;;;;6.85;6.08;;;;;;;15.96;91.11;97975.81;1722799;82;20855;-73
2021/07/12 00:56:19;;;;;;;8.50;5.70;;;;;;;15.97;91.60;97978.78;1750609;82;21314;-73
2021/07/12 00:58:45;;;;;;;9.48;6.42;;;;;;;15.95;91.75;97973.64;1750237;82;21017;-73
2021/07/12 01:01:11;;;;;;;10.30;6.08;;;;;;;15.91;91.60;97971.31;1750579;81;20889;-73
2021/07/12 01:03:37;;;;;;;8.75;6.10;;;;;;;15.91;92.12;97966.41;1750479;82;21446;-73
2021/07/12 01:06:04;;;;;;;8.40;6.97;;;;;;;15.96;91.97;97969.78;1750548;81;20981;-73
2021/07/12 01:08:30;;;;;;;11.38;5.97;;;;;;;15.97;91.07;97971.39;1750460;82;21339;-73
2021/07/12 01:11:36;;;;;;;9.18;6.67;;;;;;;15.89;91.01;97978.19;1750545;82;20913;-73
2021/07/12 01:14:28;;;;;;;8.03;5.97;;;;;;;15.85;90.81;97977.22;1750197;82;21426;-74
2021/07/12 01:17:21;;;;;;;14.25;6.78;;;;;;;15.78;90.98;97966.17;1750431;82;21343;-73
2021/07/12 01:20:34;;;;;;;7.17;5.67;;;;;;;15.79;91.45;97960.95;1740282;81;21014;-73
2021/07/12 01:23:31;;;;;;;9.33;6.30;;;;;;;15.79;91.02;97956.05;1735200;82;21173;-73
2021/07/12 01:26:15;;;;;;;9.10;5.60;;;;;;;15.79;90.98;97954.12;1736495;82;21407;-75
2021/07/12 01:29:16;;;;;;;9.58;6.60;;;;;;;15.71;92.56;97953.53;1736434;82;20982;-73
2021/07/12 01:32:08;;;;;;;9.95;6.17;;;;;;;15.74;92.15;97946.09;1709428;82;21002;-73
2021/07/12 01:34:51;;;;;;;10.82;5.97;;;;;;;15.71;92.08;97953.53;1735644;82;20908;-73
2021/07/12 01:37:25;;;;;;;11.73;6.42;;;;;;;15.73;92.11;97940.94;1736379;82;21315;-73
2021/07/12 01:40:03;;;;;;;7.58;6.20;;;;;;;15.79;92.24;97947.86;1735783;82;20967;-74
2021/07/12 01:42:44;;;;;;;6.77;5.10;;;;;;;15.79;91.06;97943.20;1736643;82;20954;-73
2021/07/12 01:45:16;;;;;;;8.85;7.20;;;;;;;15.74;90.62;97948.81;1734254;82;20954;-73
2021/07/12 01:48:11;;;;;;;9.20;6.03;;;;;;;15.66;93.21;97945.48;1736479;82;21030;-74
2021/07/12 01:50:50;;;;;;;9.38;5.70;;;;;;;15.69;91.42;97942.11;1736291;82;21027;-73
2021/07/12 01:53:38;;;;;;;;;;;;;;;15.66;91.02;97951.52;1737032;82;21465;-73
2021/07/12 01:56:32;;;;;;;9.78;5.80;;;;;;;15.60;92.97;97956.27;1736731;81;20167;-73
2021/07/12 01:59:18;;;;;;;12.82;6.12;;;;;;;15.59;94.38;97958.75;1731560;82;21014;-73
2021/07/12 02:01:44;;;;;;;12.13;8.30;;;;;;;15.67;91.92;97955.29;1736343;82;21021;-73
2021/07/12 02:04:10;;;;;;;14.28;8.18;;;;;;;15.76;91.87;97953.96;1736279;82;22087;-73
2021/07/12 02:06:38;;;;;;;11.57;9.80;;;;;;;15.82;92.85;97959.55;1736361;82;20921;-74
2021/07/12 02:09:06;;;;;;;13.10;9.00;;;;;;;15.87;92.60;97963.48;1736558;82;20962;-74
2021/07/12 02:11:33;;;;;;;19.45;11.08;;;;;;;15.94;92.22;97979.42;1736272;82;20915;-73
2021/07/12 02:13:58;;;;;;;12.47;9.60;;;;;;;15.96;92.32;97981.28;1736465;82;20962;-74
2021/07/12 02:16:25;;;;;;;11.48;8.28;;;;;;;15.99;93.44;97974.64;1736405;82;21982;-74
2021/07/12 02:18:51;;;;;;;9.65;8.35;;;;;;;16.06;93.54;97976.89;1738986;81;21072;-74
2021/07/12 02:21:16;;;;;;;13.83;9.20;;;;;;;16.08;93.48;97976.84;1750491;82;20886;-74
2021/07/12 02:23:43;;;;;;;11.50;8.30;;;;;;;16.10;93.17;97976.52;1750430;82;21004;-73
2021/07/12 02:26:11;;;;;;;9.10;6.72;;;;;;;16.10;93.48;97971.61;1722703;82;21005;-74
2021/07/12 02:28:41;;;;;;;7.53;6.65;;;;;;;16.02;92.76;97967.73;1750318;82;21889;-74
2021/07/12 02:31:04;;;;;;;7.05;5.47;;;;;;;15.94;91.87;97967.13;1749961;82;21013;-73
2021/07/12 02:33:30;;;;;;;8.10;5.70;;;;;;;15.82;91.65;97965.00;1750414;82;20814;-73
2021/07/12 02:35:56;;;;;;;7.97;5.72;;;;;;;15.68;91.58;97971.92;1750632;82;20866;-73
2021/07/12 02:38:23;;;;;;;11.85;5.75;;;;;;;15.64;91.83;97975.61;1750562;81;21491;-73
2021/07/12 02:40:49;;;;;;;8.75;5.33;;;;;;;15.66;91.64;97975.53;1750311;82;20983;-73
2021/07/12 02:43:15;;;;;;;9.18;6.40;;;;;;;15.67;91.60;97974.41;1698688;82;20995;-73
2021/07/12 02:45:41;;;;;;;13.15;6.28;;;;;;;15.74;91.66;97979.43;1750227;82;20917;-73
2021/07/12 02:48:07;;;;;;;12.33;6.97;;;;;;;15.70;93.03;97975.14;1750471;82;20954;-73
2021/07/12 02:50:33;;;;;;;8.35;5.90;;;;;;;15.72;92.96;97972.08;1750269;82;21504;-73
2021/07/12 02:53:21;;;;;;;7.87;6.12;;;;;;;15.74;92.96;97963.84;1722562;82;21130;-73
2021/07/12 02:55:47;;;;;;;17.95;6.22;;;;;;;15.76;91.92;97964.89;1750730;82;26523;-73
2021/07/12 02:58:13;;;;;;;12.82;7.08;;;;;;;15.72;91.53;97968.82;1750317;82;21463;-73
2021/07/12 03:00:39;;;;;;;9.18;6.30;;;;;;;15.68;92.01;97961.55;1750408;82;20854;-73
2021/07/12 03:03:05;;;;;;;9.75;6.85;;;;;;;15.72;92.04;97959.80;1750227;82;20961;-73
2021/07/12 03:05:31;;;;;;;10.95;6.53;;;;;;;15.74;92.71;97962.48;1750253;82;22001;-73
2021/07/12 03:08:09;;;;;;;10.60;6.85;;;;;;;15.78;92.00;97964.81;1750300;82;21002;-73
2021/07/12 03:10:39;;;;;;;12.88;7.53;;;;;;;15.75;93.35;97968.75;1750142;82;20993;-74
2021/07/12 03:13:05;;;;;;;9.73;6.90;;;;;;;15.80;92.52;97969.95;1750084;82;21076;-74
2021/07/12 03:15:40;;;;;;;11.35;6.67;;;;;;;15.84;91.89;97974.25;1722655;82;20862;-74
2021/07/12 03:18:30;;;;;;;10.63;7.97;;;;;;;15.87;91.86;97977.70;1750191;82;21019;-72
2021/07/12 03:21:02;;;;;;;7.92;6.20;;;;;;;15.97;92.37;97983.69;1747144;81;20959;-73
2021/07/12 03:23:28;;;;;;;10.55;7.83;;;;;;;16.03;92.26;97980.27;1750550;82;20950;-73
2021/07/12 03:25:59;;;;;;;9.75;8.30;;;;;;;16.01;91.82;97975.13;1750324;82;21361;-73
2021/07/12 03:28:25;;;;;;;16.57;8.80;;;;;;;15.96;92.17;97978.55;1724014;82;21005;-73
2021/07/12 03:30:51;;;;;;;10.60;7.60;;;;;;;15.93;92.88;97984.65;1750570;82;21242;-73
2021/07/12 03:33:20;;;;;;;13.72;8.43;;;;;;;15.94;92.77;97975.33;1750182;82;21544;-73
2021/07/12 03:35:47;;;;;;;13.48;7.42;;;;;;;15.99;93.38;97978.73;1750217;82;20989;-73
2021/07/12 03:38:14;;;;;;;11.18;7.30;;;;;;;16.04;93.09;97979.94;1750109;82;20911;-73
2021/07/12 03:40:40;;;;;;;13.32;7.85;;;;;;;16.09;92.43;97976.28;1750149;82;21433;-73
2021/07/12 03:43:12;;;;;;;11.97;6.80;;;;;;;16.14;92.14;97979.41;1750121;81;21115;-73
2021/07/12 03:45:39;;;;;;;10.18;7.83;;;;;;;16.13;92.32;97988.73;1750021;82;21096;-74
2021/07/12 03:48:06;;;;;;;11.05;7.17;;;;;;;16.09;91.99;97995.41;1750212;82;21045;-74
2021/07/12 03:50:32;;;;;;;9.93;7.28;;;;;;;16.15;92.28;97996.89;1750201;82;20915;-74
2021/07/12 03:53:01;;;;;;;11.12;6.55;;;;;;;16.18;91.78;97998.17;1750262;82;20934;-74
2021/07/12 03:55:25;;;;;;;16.67;7.28;;;;;;;16.22;91.88;97996.41;1722758;82;21052;-74
2021/07/12 03:57:51;;;;;;;15.05;7.62;;;;;;;16.24;92.19;98004.55;1750272;82;20905;-74
2021/07/12 04:00:21;;;;;;;15.70;8.10;;;;;;;16.35;91.64;98006.42;1750253;82;21487;-74
2021/07/12 04:02:47;;;;;;;11.50;9.38;;;;;;;16.47;91.74;98016.74;1749647;81;20989;-74
2021/07/12 04:05:13;;;;;;;15.08;8.40;;;;;;;16.48;91.22;98015.05;1750115;81;21367;-74
2021/07/12 04:07:39;;;;;;;9.10;7.97;;;;;;;16.49;90.72;98015.86;1750154;82;21064;-74
2021/07/12 04:10:11;;;;;;;21.82;10.88;;;;;;;16.44;90.53;98013.28;1750337;82;21020;-74
2021/07/12 04:12:38;;;;;;;9.83;7.37;;;;;;;16.46;90.62;98017.88;1750325;82;20942;-74
2021/07/12 04:15:06;;;;;;;11.83;7.92;;;;;;;16.56;90.45;98015.63;1750245;82;20958;-75
2021/07/12 04:17:34;;;;;;;11.73;8.63;;;;;;;16.55;90.74;98017.33;1750111;82;20974;-74
2021/07/12 04:20:00;;;;;;;13.43;7.40;;;;;;;16.58;91.35;98017.52;1750289;81;21206;-74
2021/07/12 04:22:26;;;;;;;12.43;7.53;;;;;;;16.59;91.54;98013.65;1750097;82;21379;-74
2021/07/12 04:24:52;;;;;;;12.95;7.72;;;;;;;16.67;91.19;98001.68;1750410;81;20878;-74
2021/07/12 04:27:18;;;;;;;19.25;9.93;;;;;;;16.67;90.71;98001.11;1750377;82;20966;-74
2021/07/12 04:29:44;;;;;;;14.93;9.25;;;;;;;16.70;90.59;98003.23;1750568;82;21911;-74
2021/07/12 04:32:10;;;;;;;11.48;8.53;;;;;;;16.77;89.89;98004.94;1750863;82;21239;-74
2021/07/12 04:34:37;;;;;;;14.25;10.18;;;;;;;16.74;90.32;98003.39;1750449;82;21547;-74
2021/07/12 04:37:03;;;;;;;14.00;9.18;;;;;;;16.74;90.25;98006.92;1750721;82;20910;-74
2021/07/12 04:39:29;;;;;;;12.47;7.65;;;;;;;16.82;89.65;98011.60;1750599;82;20997;-74
2021/07/12 04:41:55;;;;;;;36.20;11.88;;;;;;;16.71;90.54;98007.58;1750481;82;20956;-74
2021/07/12 04:44:21;;;;;;;12.37;9.05;;;;;;;16.81;90.11;98003.72;1750562;82;21031;-74
2021/07/12 04:46:48;;;;;;;11.43;9.85;;;;;;;16.90;90.35;98000.42;1750488;81;20977;-74
2021/07/12 04:49:15;;;;;;;11.05;9.90;;;;;;;16.98;90.32;97994.72;1750441;82;20957;-74
2021/07/12 04:51:41;;;;;;;16.05;11.33;;;;;;;17.06;89.55;97993.91;1750891;82;21055;-74
2021/07/12 04:54:07;;;;;;;13.90;8.38;;;;;;;17.02;89.64;97992.96;1750618;82;21634;-74
2021/07/12 04:56:34;;;;;;;7.30;6.55;;;;;;;17.02;89.52;97983.38;1750195;82;21933;-74
2021/07/12 04:59:04;;;;;;;11.70;8.13;;;;;;;17.19;89.44;97977.89;1750428;81;20974;-74
2021/07/12 05:01:32;;;;;;;18.60;10.28;;;;;;;17.38;88.84;97976.17;1750135;82;21379;-74
2021/07/12 05:03:56;;;;;;;10.70;7.55;;;;;;;17.74;88.75;97977.16;1750255;82;21358;-74
2021/07/12 05:06:22;;;;;;;9.75;6.95;;;;;;;18.18;88.21;97977.78;1750319;82;20898;-74
2021/07/12 05:08:48;;;;;;;10.10;8.18;;;;;;;18.26;87.38;97967.34;1751184;82;21162;-74
2021/07/12 05:11:14;;;;;;;14.38;8.40;;;;;;;18.43;87.64;97978.78;1750158;82;21460;-74
2021/07/12 05:13:43;;;;;;;8.25;7.45;;;;;;;18.65;86.36;97984.01;1750502;82;20901;-74
2021/07/12 05:16:08;;;;;;;12.47;7.97;;;;;;;18.88;85.54;97980.35;1750479;82;20938;-74
2021/07/12 05:18:34;;;;;;;11.97;7.75;;;;;;;19.00;84.85;97977.69;1750637;82;20953;-74
2021/07/12 05:21:00;;;;;;;8.93;7.28;;;;;;;19.21;84.90;97977.66;1750275;81;21127;-74
2021/07/12 05:23:25;;;;;;;14.43;7.45;;;;;;;19.31;84.30;97975.89;1750650;81;20897;-74
2021/07/12 05:25:51;;;;;;;10.20;7.12;;;;;;;19.42;84.01;97981.76;1750458;82;20838;-74
2021/07/12 05:28:17;;;;;;;10.50;7.35;;;;;;;19.46;83.93;97974.43;1750225;82;20940;-74
2021/07/12 05:30:43;;;;;;;11.03;6.97;;;;;;;19.41;83.72;97975.46;1750522;82;20886;-74
2021/07/12 05:33:10;;;;;;;12.80;7.12;;;;;;;19.46;83.52;97974.43;1750311;82;21142;-74
2021/07/12 05:35:37;;;;;;;10.10;7.17;;;;;;;19.53;83.83;97969.19;1750329;82;20934;-74
2021/07/12 05:38:04;;;;;;;10.03;6.83;;;;;;;19.49;84.30;97968.85;1750148;82;20966;-74
2021/07/12 05:40:31;;;;;;;11.25;8.05;;;;;;;19.61;84.15;97971.65;1750383;82;20918;-74
2021/07/12 05:42:57;;;;;;;10.85;8.13;;;;;;;19.69;83.68;97970.18;1750309;81;20970;-74
2021/07/12 05:45:23;;;;;;;13.38;9.13;;;;;;;19.71;83.36;97970.63;1750448;82;21287;-74
2021/07/12 05:47:49;;;;;;;13.80;8.63;;;;;;;19.81;82.22;97964.47;1750335;82;21442;-74
2021/07/12 05:50:15;;;;;;;11.57;9.18;;;;;;;19.81;81.08;97961.72;1750584;82;20850;-74
2021/07/12 05:52:41;;;;;;;12.43;8.63;;;;;;;19.72;81.69;97955.74;1750276;82;20854;-74
2021/07/12 05:55:08;;;;;;;16.40;11.48;;;;;;;19.79;82.20;97955.77;1750592;82;20859;-74
2021/07/12 05:57:34;;;;;;;10.45;8.90;;;;;;;19.86;82.14;97954.62;1750282;82;21296;-74
2021/07/12 06:00:00;;;;;;;10.43;8.35;;;;;;;19.98;81.92;97971.13;1750479;81;21531;-74
2021/07/12 06:02:26;;;;;;;9.35;6.65;;;;;;;20.08;81.87;97965.75;1750508;81;20941;-74
2021/07/12 06:04:52;;;;;;;10.72;7.20;;;;;;;20.23;81.91;97960.95;1722911;82;21449;-74
2021/07/12 06:07:18;;;;;;;10.75;7.50;;;;;;;20.32;81.39;97962.20;1750274;82;20831;-74
2021/07/12 06:09:44;;;;;;;7.62;6.67;;;;;;;20.54;81.01;97965.89;1750509;81;21197;-74
2021/07/12 06:12:10;;;;;;;10.25;6.62;;;;;;;20.73;80.58;97968.83;1750356;81;21287;-74
2021/07/12 06:14:36;;;;;;;11.83;7.50;;;;;;;20.91;80.25;97961.68;1750410;82;21457;-74
2021/07/12 06:17:02;;;;;;;10.43;7.25;;;;;;;21.12;79.14;97956.80;1750192;82;21445;-74
2021/07/12 06:19:28;;;;;;;10.50;6.65;;;;;;;21.38;77.98;97950.86;1750398;82;21044;-74
2021/07/12 06:21:54;;;;;;;8.60;5.90;;;;;;;21.73;77.83;97951.59;1750215;81;21298;-74
2021/07/12 06:24:20;;;;;;;10.30;6.65;;;;;;;22.11;76.79;97951.78;1722720;82;20917;-74
2021/07/12 06:26:46;;;;;;;21.20;7.35;;;;;;;22.46;77.19;97938.02;1750154;82;20905;-75
2021/07/12 06:29:12;;;;;;;9.20;6.17;;;;;;;22.83;74.55;97936.88;1750613;82;20874;-74
2021/07/12 06:31:37;;;;;;;7.42;5.80;;;;;;;22.99;72.23;97944.55;1750264;82;21603;-74
2021/07/12 06:34:03;;;;;;;10.20;6.83;;;;;;;23.01;71.98;97950.50;1750528;82;21301;-74
2021/07/12 06:36:29;;;;;;;7.83;6.10;;;;;;;22.95;72.34;97948.59;1750267;82;20913;-74
2021/07/12 06:38:55;;;;;;;7.75;6.53;;;;;;;22.92;72.68;97948.53;1750437;81;20945;-74
2021/07/12 06:41:21;;;;;;;11.73;6.62;;;;;;;22.98;72.92;97949.83;1750245;82;20838;-74
2021/07/12 06:43:48;;;;;;;7.08;5.87;;;;;;;23.01;73.45;97956.83;1750289;82;21457;-75
2021/07/12 06:46:15;;;;;;;8.38;5.45;;;;;;;23.03;72.44;97950.34;1750456;82;21140;-74
2021/07/12 06:48:41;;;;;;;7.87;6.10;;;;;;;22.93;71.44;97947.38;1750317;81;21012;-74
2021/07/12 06:51:08;;;;;;;8.70;5.53;;;;;;;22.84;72.51;97950.90;1750226;82;20926;-74
2021/07/12 06:53:35;;;;;;;10.37;6.20;;;;;;;22.81;72.57;97956.55;1750597;81;20982;-74
2021/07/12 06:56:03;;;;;;;9.30;6.53;;;;;;;22.83;72.96;97961.14;1750441;82;20950;-74
2021/07/12 06:58:29;;;;;;;11.22;6.78;;;;;;;22.85;72.04;97967.13;1750742;82;21131;-75
2021/07/12 07:00:55;;;;;;;15.32;7.58;;;;;;;22.72;71.03;97980.22;1750289;81;20874;-74
2021/07/12 07:03:21;;;;;;;9.73;7.72;;;;;;;22.49;71.89;97969.07;1750095;81;21045;-74
2021/07/12 07:05:47;;;;;;;8.05;6.40;;;;;;;22.43;72.93;97971.88;1750566;82;20973;-74
2021/07/12 07:08:13;;;;;;;12.10;6.80;;;;;;;22.37;72.58;97977.44;1750138;82;20909;-74
2021/07/12 07:10:39;;;;;;;9.73;6.03;;;;;;;22.24;73.77;97978.72;1750448;81;21357;-74
2021/07/12 07:13:05;;;;;;;15.98;6.15;;;;;;;22.13;74.87;97970.19;1750169;82;20870;-74
2021/07/12 07:15:31;;;;;;;8.75;5.53;;;;;;;22.07;75.26;97967.47;1750747;82;20853;-74
2021/07/12 07:17:59;;;;;;;7.03;5.53;;;;;;;21.93;76.19;97972.00;1750290;81;20897;-74
2021/07/12 07:20:25;;;;;;;9.75;5.20;;;;;;;21.90;76.42;97973.30;1748377;81;21045;-74
2021/07/12 07:22:51;;;;;;;10.13;6.25;;;;;;;21.76;77.03;97971.55;1736226;82;21151;-75
2021/07/12 07:25:17;;;;;;;9.73;6.65;;;;;;;21.62;76.83;97975.55;1736285;81;21579;-74
2021/07/12 07:27:43;;;;;;;10.38;6.55;;;;;;;21.49;77.15;97978.70;1736162;82;20870;-74
2021/07/12 07:30:11;;;;;;;10.53;6.58;;;;;;;21.45;76.97;97981.37;1736381;82;21489;-74
2021/07/12 07:32:37;;;;;;;8.85;6.87;;;;;;;21.47;76.88;97992.05;1736236;82;21450;-74
2021/07/12 07:35:04;;;;;;;9.60;6.62;;;;;;;21.48;76.92;97983.42;1736538;82;21149;-74
2021/07/12 07:37:31;;;;;;;6.60;5.90;;;;;;;21.49;77.24;97972.62;1736166;82;20888;-74
2021/07/12 07:39:56;;;;;;;17.80;7.28;;;;;;;21.46;77.28;97978.84;1736563;82;20886;-74
2021/07/12 07:42:23;;;;;;;7.83;5.65;;;;;;;21.52;77.55;97984.88;1736132;82;20875;-74
2021/07/12 07:44:49;;;;;;;12.58;6.05;;;;;;;21.60;77.47;97995.75;1736599;82;21005;-74
2021/07/12 07:47:15;;;;;;;8.38;5.87;;;;;;;21.67;77.37;98000.09;1736091;82;21313;-74
2021/07/12 07:49:41;;;;;;;13.13;8.58;;;;;;;21.72;77.37;97992.73;1736371;82;21021;-74
2021/07/12 07:52:07;;;;;;;10.08;8.48;;;;;;;21.72;77.91;97990.77;1736379;81;20933;-75
2021/07/12 07:54:33;;;;;;;8.05;5.80;;;;;;;21.80;77.64;97984.29;1736446;81;20910;-74
2021/07/12 07:56:59;;;;;;;6.95;5.12;;;;;;;21.84;77.67;97987.13;1736187;82;20958;-74
2021/07/12 07:59:25;;;;;;;6.83;5.25;;;;;;;21.92;77.18;97990.30;1736500;82;21324;-74
2021/07/12 08:01:51;;;;;;;5.97;4.75;;;;;;;22.00;76.83;97991.28;1736354;82;21493;-75
2021/07/12 08:04:17;;;;;;;6.28;5.65;;;;;;;22.05;76.30;97995.14;1736734;82;20902;-75
2021/07/12 08:06:43;;;;;;;7.35;5.62;;;;;;;22.08;76.14;98004.13;1736328;82;20855;-74
2021/07/12 08:09:08;;;;;;;10.38;7.00;;;;;;;22.10;76.28;98002.61;1736652;82;20989;-74
2021/07/12 08:11:34;;;;;;;9.03;6.40;;;;;;;22.10;76.40;98005.37;1736294;82;21314;-74
2021/07/12 08:14:01;;;;;;;7.78;6.35;;;;;;;22.07;76.59;97995.05;1736535;82;20862;-74
2021/07/12 08:16:26;;;;;;;10.98;7.62;;;;;;;22.18;76.76;97985.66;1736396;81;20963;-74
2021/07/12 08:18:52;;;;;;;11.10;7.83;;;;;;;22.30;76.76;97989.69;1736428;82;20901;-74
2021/07/12 08:21:18;;;;;;;11.22;8.25;;;;;;;22.33;76.69;97993.13;1741864;81;20843;-74
2021/07/12 08:23:44;;;;;;;13.30;8.43;;;;;;;22.36;76.71;98002.06;1750467;82;22078;-74
2021/07/12 08:26:11;;;;;;;10.80;8.88;;;;;;;22.37;76.83;98000.11;1750274;82;20874;-74
2021/07/12 08:28:39;;;;;;;10.70;8.20;;;;;;;22.23;77.36;98003.34;1723093;82;21422;-75
2021/07/12 08:31:05;;;;;;;13.93;9.73;;;;;;;22.18;77.60;98001.63;1750348;82;20987;-74
2021/07/12 08:33:30;;;;;;;13.43;9.30;;;;;;;;;;1750551;82;20957;-74
2021/07/12 08:35:56;;;;;;;13.28;9.50;;;;;;;22.20;78.04;98018.63;1750419;82;21774;-75
2021/07/12 08:38:22;;;;;;;11.08;9.90;;;;;;;22.22;78.09;98012.20;1750480;82;20874;-74
2021/07/12 08:40:49;;;;;;;12.68;10.98;;;;;;;;;;1750516;82;20932;-74
2021/07/12 08:43:16;;;;;;;13.05;11.00;;;;;;;22.16;78.06;98022.47;1750183;82;21028;-74
2021/07/12 08:45:42;;;;;;;14.93;11.22;;;;;;;22.09;78.10;98025.84;1750372;82;21008;-74
2021/07/12 08:48:08;;;;;;;12.88;9.80;;;;;;;22.00;78.26;98036.80;1750201;82;21128;-74
2021/07/12 08:50:34;;;;;;;12.13;9.30;;;;;;;21.91;78.42;98036.38;1750442;82;20937;-74
2021/07/12 08:53:00;;;;;;;15.95;11.65;;;;;;;21.78;78.53;98044.48;1750175;82;21563;-74
2021/07/12 08:55:26;;;;;;;9.85;8.30;;;;;;;21.68;78.79;98049.14;1750476;82;20810;-74
2021/07/12 08:58:18;;;;;;;14.15;9.18;;;;;;;21.60;79.14;98052.27;1750261;81;20923;-74
2021/07/12 09:00:52;;;;;;;8.85;7.25;;;;;;;21.41;79.78;98056.26;1750055;81;21331;-73
2021/07/12 09:03:27;;;;;;;7.83;6.53;;;;;;;21.29;80.21;98050.80;1750408;82;20970;-74
2021/07/12 09:05:59;;;;;;;5.92;5.33;;;;;;;21.24;80.18;98042.16;1750457;81;20970;-74
2021/07/12 09:08:51;;;;;;;13.20;7.90;;;;;;;21.22;80.20;98047.22;1750535;81;21021;-74
2021/07/12 09:11:20;;;;;;;15.25;6.67;;;;;;;21.23;80.24;98043.31;1750415;81;21191;-74
2021/07/12 09:14:02;;;;;;;8.08;6.60;;;;;;;21.19;80.18;98037.45;1750549;81;21196;-74
2021/07/12 09:16:47;;;;;;;9.08;5.50;;;;;;;21.12;80.42;98036.11;1750209;82;21352;-74
2021/07/12 09:19:19;;;;;;;7.75;5.33;;;;;;;20.97;80.43;98044.30;1750518;82;21387;-73
2021/07/12 09:21:53;;;;;;;44.15;31.30;;;;;;;20.83;80.49;98041.89;1750240;81;20973;-73
2021/07/12 09:24:31;;;;;;;15.72;12.58;;;;;;;20.75;80.76;98047.75;1750478;82;21340;-75
2021/07/12 09:27:00;;;;;;;7.25;5.87;;;;;;;20.68;80.93;98053.06;1750450;82;21283;-74
2021/07/12 09:29:37;;;;;;;8.00;6.47;;;;;;;20.55;81.18;98047.31;1722995;82;21464;-74
2021/07/12 09:32:10;;;;;;;32.30;29.40;;;;;;;20.39;82.13;98036.73;1750356;82;20914;-73
2021/07/12 09:34:36;;;;;;;15.90;14.15;;;;;;;20.18;82.63;98028.02;1750242;82;20981;-73
2021/07/12 09:37:02;;;;;;;8.38;6.60;;;;;;;20.07;82.80;98030.16;1750347;82;20939;-74
2021/07/12 09:39:36;;;;;;;8.90;5.55;;;;;;;20.04;83.39;98026.72;1750516;82;21262;-74
2021/07/12 09:42:06;;;;;;;9.20;5.00;;;;;;;19.93;83.67;98030.48;1699125;82;20919;-73
2021/07/12 09:44:33;;;;;;;8.53;5.90;;;;;;;19.85;83.79;98036.31;1749822;82;20982;-73
2021/07/12 09:47:05;;;;;;;6.80;5.60;;;;;;;19.85;83.76;98047.31;1722486;82;20962;-74
2021/07/12 09:49:31;;;;;;;12.93;8.20;;;;;;;19.84;83.77;98051.20;1750158;82;21025;-74
2021/07/12 09:52:00;;;;;;;7.87;5.10;;;;;;;19.84;84.17;98048.45;1750350;82;21725;-73
2021/07/12 09:54:33;;;;;;;7.87;5.45;;;;;;;19.73;84.06;98047.26;1750368;82;20985;-73
2021/07/12 09:57:13;;;;;;;6.85;5.37;;;;;;;19.68;83.93;98035.92;1750395;82;20986;-74
2021/07/12 10:00:09;;;;;;;6.62;5.87;;;;;;;19.62;84.18;98048.83;1716250;82;21516;-73
2021/07/12 10:02:37;;;;;;;10.45;5.95;;;;;;;19.50;84.10;98056.44;1750289;81;21536;-73
2021/07/12 10:05:09;;;;;;;6.80;5.40;;;;;;;19.36;84.16;98044.91;1750381;82;21271;-73
2021/07/12 10:07:35;;;;;;;7.25;6.30;;;;;;;19.31;84.74;98043.73;1750063;82;21012;-73
2021/07/12 10:10:06;;;;;;;10.45;7.22;;;;;;;19.18;84.92;98037.96;1750211;82;21017;-73
2021/07/12 10:12:32;;;;;;;10.00;6.75;;;;;;;19.16;85.06;98042.42;1750242;81;20914;-74
2021/07/12 10:14:58;;;;;;;6.78;6.00;;;;;;;19.15;85.60;98046.31;1750513;81;21016;-74
2021/07/12 10:17:24;;;;;;;8.15;5.97;;;;;;;19.10;85.73;98064.34;1750198;82;21242;-74
2021/07/12 10:19:50;;;;;;;20.32;6.62;;;;;;;19.07;86.06;98052.67;1750414;82;21556;-75
2021/07/12 10:22:16;;;;;;;10.78;6.00;;;;;;;19.03;85.82;98051.14;1750186;81;20846;-75
2021/07/12 10:24:47;;;;;;;9.65;5.67;;;;;;;18.97;85.79;98045.64;1722780;82;20970;-75
2021/07/12 10:27:24;;;;;;;8.98;6.08;;;;;;;19.00;85.83;98052.39;1750169;82;21335;-73
2021/07/12 10:29:51;;;;;;;16.20;11.03;;;;;;;19.01;85.90;98049.31;1750360;82;21406;-74
2021/07/12 10:32:23;;;;;;;23.67;15.28;;;;;;;19.01;86.25;98048.51;1750112;82;21009;-74
2021/07/12 10:34:53;;;;;;;25.75;17.12;;;;;;;19.00;86.13;98035.92;1750120;82;21025;-75
2021/07/12 10:37:34;;;;;;;12.78;10.85;;;;;;;19.05;86.37;98039.25;1750149;82;21394;-73
2021/07/12 10:40:18;;;;;;;11.40;8.08;;;;;;;18.99;87.10;98052.16;1722515;82;21075;-73
2021/07/12 10:42:51;;;;;;;10.72;7.22;;;;;;;19.00;86.93;98042.22;1750087;82;21793;-74
2021/07/12 10:45:34;;;;;;;9.78;6.45;;;;;;;19.03;87.97;98025.06;1750374;82;20997;-74
2021/07/12 10:48:09;;;;;;;10.63;6.53;;;;;;;19.04;88.24;98022.55;1743909;82;21359;-73
2021/07/12 10:50:41;;;;;;;18.00;11.95;;;;;;;19.08;87.32;98026.81;1750097;81;21052;-73
2021/07/12 10:53:27;;;;;;;8.73;6.78;;;;;;;19.13;87.28;98023.84;1750299;82;20946;-73
2021/07/12 10:56:11;;;;;;;9.35;5.20;;;;;;;19.07;87.18;98034.82;1750430;82;21849;-74
2021/07/12 10:58:41;;;;;;;10.08;7.58;;;;;;;19.07;87.42;98038.94;1748689;82;21430;-73
2021/07/12 11:01:08;;;;;;;16.30;10.15;;;;;;;18.92;87.45;98038.95;1750337;82;20931;-73
2021/07/12 11:03:50;;;;;;;13.10;8.43;;;;;;;18.92;87.61;98032.66;1750034;82;21260;-74
2021/07/12 11:06:21;;;;;;;21.25;13.00;;;;;;;18.88;87.48;98031.97;1750353;82;21080;-73
2021/07/12 11:08:58;;;;;;;13.75;8.63;;;;;;;18.91;87.76;98047.53;1750468;82;21147;-73
2021/07/12 11:11:33;;;;;;;10.28;7.20;;;;;;;18.83;87.62;98036.84;1750245;82;21292;-73
2021/07/12 11:14:00;;;;;;;11.97;9.55;;;;;;;18.83;88.16;98058.80;1750559;82;20978;-74
2021/07/12 11:16:41;;;;;;;18.12;10.48;;;;;;;18.71;88.28;98047.72;1722986;82;20970;-74
2021/07/12 11:19:28;;;;;;;14.03;9.18;;;;;;;18.71;88.24;98046.34;1725806;82;20954;-72
2021/07/12 11:22:01;;;;;;;11.48;7.95;;;;;;;18.68;90.57;98045.08;1746506;81;21169;-74
2021/07/12 11:24:27;;;;;;;9.43;5.20;;;;;;;18.66;91.16;98042.44;1729295;82;20975;-74
2021/07/12 11:26:56;;;;;;;6.30;5.30;;;;;;;18.64;89.39;98030.97;1736315;82;20946;-74
2021/07/12 11:29:34;;;;;;;;;;;;;;;18.56;89.04;98018.33;1738937;81;21453;-73
2021/07/12 11:32:07;;;;;;;6.62;3.70;;;;;;;18.58;88.59;98021.54;1736266;81;20132;-74
2021/07/12 11:34:51;;;;;;;5.47;3.33;;;;;;;18.56;88.25;98018.33;1737051;82;21123;-74
2021/07/12 11:37:20;;;;;;;6.42;4.12;;;;;;;18.52;87.96;98009.71;1736282;82;20999;-73
2021/07/12 11:39:50;;;;;;;6.33;3.55;;;;;;;18.50;87.68;98003.19;1736490;82;20966;-73